createdAt,value
2022-08-16T00:01:25.090Z,19.77
2022-08-16T00:03:55.952Z,19.78
2022-08-16T00:06:23.573Z,19.91
2022-08-16T00:08:50.491Z,19.83
2022-08-16T00:11:21.053Z,19.76
2022-08-16T00:13:53.843Z,19.75
2022-08-16T00:17:01.026Z,19.84
2022-08-16T00:19:17.052Z,19.88
2022-08-16T00:21:46.644Z,19.89
2022-08-16T00:24:31.229Z,19.83
2022-08-16T00:27:03.177Z,19.81
2022-08-16T00:29:31.256Z,19.80
2022-08-16T00:32:06.079Z,19.78
2022-08-16T00:34:43.869Z,19.65
2022-08-16T00:37:57.586Z,19.58
2022-08-16T00:40:34.810Z,19.60
2022-08-16T00:43:19.328Z,19.64
2022-08-16T00:46:01.073Z,19.56
2022-08-16T00:48:50.685Z,19.50
2022-08-16T00:51:20.720Z,19.40
2022-08-16T00:53:49.996Z,19.37
2022-08-16T00:56:55.978Z,19.32
2022-08-16T00:59:25.868Z,19.13
2022-08-16T01:01:53.478Z,19.05
2022-08-16T01:04:29.918Z,18.98
2022-08-16T01:07:01.125Z,18.94
2022-08-16T01:09:37.574Z,19.01
2022-08-16T01:12:10.564Z,18.98
2022-08-16T01:14:57.155Z,18.99
2022-08-16T01:17:26.741Z,18.88
2022-08-16T01:20:01.705Z,18.87
2022-08-16T01:23:10.176Z,18.97
2022-08-16T01:25:59.749Z,19.07
2022-08-16T01:28:38.739Z,19.09
2022-08-16T01:31:16.505Z,19.08
2022-08-16T01:33:44.673Z,18.97
2022-08-16T01:36:13.083Z,18.97
2022-08-16T01:38:53.286Z,18.97
2022-08-16T01:41:30.573Z,18.87
2022-08-16T01:44:00.906Z,18.88
2022-08-16T01:46:41.775Z,18.94
2022-08-16T01:49:45.384Z,18.95
2022-08-16T01:52:29.678Z,18.98
2022-08-16T01:54:58.649Z,18.97
2022-08-16T01:57:28.259Z,18.92
2022-08-16T01:59:59.337Z,18.93
2022-08-16T02:02:28.865Z,18.90
2022-08-16T02:05:00.053Z,18.83
2022-08-16T02:07:28.119Z,18.83
2022-08-16T02:09:59.739Z,18.76
2022-08-16T02:12:50.655Z,18.74
2022-08-16T02:15:25.015Z,18.73
2022-08-16T02:17:58.542Z,18.73
2022-08-16T02:20:28.204Z,18.77
2022-08-16T02:22:57.736Z,18.69
2022-08-16T02:25:51.724Z,18.65
2022-08-16T02:28:17.395Z,18.64
2022-08-16T02:30:50.881Z,18.70
2022-08-16T02:33:24.463Z,18.68
2022-08-16T02:36:14.251Z,18.74
2022-08-16T02:38:42.184Z,18.66
2022-08-16T02:41:10.027Z,18.58
2022-08-16T02:43:39.383Z,18.59
2022-08-16T02:46:09.755Z,18.51
2022-08-16T02:48:38.750Z,18.46
2022-08-16T02:51:11.324Z,18.44
2022-08-16T02:53:43.083Z,18.49
2022-08-16T02:56:14.869Z,18.45
2022-08-16T02:58:44.227Z,18.44
2022-08-16T03:01:24.905Z,18.48
2022-08-16T03:04:29.051Z,18.56
2022-08-16T03:06:55.268Z,18.56
2022-08-16T03:09:25.195Z,18.43
2022-08-16T03:11:55.939Z,18.38
2022-08-16T03:14:24.891Z,18.44
2022-08-16T03:16:59.914Z,18.43
2022-08-16T03:19:48.828Z,18.40
2022-08-16T03:22:29.018Z,18.41
2022-08-16T03:25:00.940Z,18.40
2022-08-16T03:27:32.891Z,18.44
2022-08-16T03:30:16.082Z,18.37
2022-08-16T03:32:47.975Z,18.37
2022-08-16T03:35:32.820Z,18.38
2022-08-16T03:38:04.325Z,18.48
2022-08-16T03:40:51.716Z,18.49
2022-08-16T03:43:21.505Z,18.63
2022-08-16T03:45:53.216Z,18.69
2022-08-16T03:48:36.096Z,18.68
2022-08-16T03:51:12.112Z,18.72
2022-08-16T03:53:40.827Z,18.77
2022-08-16T03:56:19.813Z,18.71
2022-08-16T03:58:51.133Z,18.71
2022-08-16T04:01:22.407Z,18.70
2022-08-16T04:03:51.077Z,18.65
2022-08-16T04:06:21.003Z,18.63
2022-08-16T04:08:48.627Z,18.68
2022-08-16T04:11:16.385Z,18.60
2022-08-16T04:14:01.848Z,18.61
2022-08-16T04:16:33.756Z,18.58
2022-08-16T04:19:04.380Z,18.63
2022-08-16T04:21:47.387Z,18.55
2022-08-16T04:24:15.447Z,18.50
2022-08-16T04:26:46.150Z,18.49
2022-08-16T04:29:23.433Z,18.47
2022-08-16T04:31:56.256Z,18.49
2022-08-16T04:34:29.088Z,18.51
2022-08-16T04:36:57.933Z,18.38
2022-08-16T04:39:46.219Z,18.28
2022-08-16T04:42:26.214Z,18.36
2022-08-16T04:44:56.015Z,18.30
2022-08-16T04:47:31.338Z,18.40
2022-08-16T04:50:00.238Z,18.46
2022-08-16T04:52:34.664Z,18.41
2022-08-16T04:55:11.941Z,18.35
2022-08-16T04:57:41.261Z,18.33
2022-08-16T05:00:32.270Z,18.39
2022-08-16T05:03:07.253Z,18.47
2022-08-16T05:05:45.364Z,18.47
2022-08-16T05:08:30.846Z,18.62
2022-08-16T05:11:08.204Z,18.69
2022-08-16T05:13:42.321Z,18.65
2022-08-16T05:16:25.492Z,18.75
2022-08-16T05:18:56.666Z,18.92
2022-08-16T05:21:28.347Z,19.06
2022-08-16T05:24:03.485Z,19.03
2022-08-16T05:26:37.350Z,19.02
2022-08-16T05:29:07.769Z,19.08
2022-08-16T05:31:38.100Z,19.25
2022-08-16T05:34:19.441Z,19.38
2022-08-16T05:36:52.914Z,19.49
2022-08-16T05:39:20.485Z,19.53
2022-08-16T05:41:48.950Z,19.54
2022-08-16T05:44:23.927Z,19.64
2022-08-16T05:46:55.129Z,19.75
2022-08-16T05:49:24.779Z,19.82
2022-08-16T05:51:55.392Z,19.87
2022-08-16T05:54:24.947Z,19.86
2022-08-16T05:56:55.870Z,19.88
2022-08-16T05:59:24.125Z,19.89
2022-08-16T06:01:52.239Z,19.83
2022-08-16T06:04:34.986Z,19.83
2022-08-16T06:07:08.183Z,19.87
2022-08-16T06:09:43.722Z,19.92
2022-08-16T06:12:27.261Z,20.00
2022-08-16T06:15:07.728Z,19.92
2022-08-16T06:17:41.498Z,19.94
2022-08-16T06:20:35.301Z,20.02
2022-08-16T06:23:11.535Z,20.10
2022-08-16T06:25:44.500Z,20.14
2022-08-16T06:28:36.443Z,20.24
2022-08-16T06:31:07.359Z,20.34
2022-08-16T06:33:41.741Z,20.35
2022-08-16T06:36:11.815Z,20.37
2022-08-16T06:38:55.791Z,20.39
2022-08-16T06:41:24.309Z,20.48
2022-08-16T06:43:54.930Z,20.54
2022-08-16T06:46:34.511Z,20.53
2022-08-16T06:49:05.387Z,20.60
2022-08-16T06:51:46.486Z,20.67
2022-08-16T06:54:16.399Z,20.70
2022-08-16T06:56:43.449Z,20.73
2022-08-16T06:59:12.329Z,20.80
2022-08-16T07:01:45.086Z,20.82
2022-08-16T07:04:31.545Z,20.87
2022-08-16T07:07:01.652Z,21.03
2022-08-16T07:09:29.840Z,21.08
2022-08-16T07:12:03.586Z,21.16
2022-08-16T07:14:33.699Z,21.15
2022-08-16T07:17:03.270Z,21.16
2022-08-16T07:20:29.294Z,21.28
2022-08-16T07:22:38.359Z,21.38
2022-08-16T07:25:12.987Z,21.51
2022-08-16T07:27:41.642Z,21.67
2022-08-16T07:30:44.917Z,21.83
2022-08-16T07:33:03.334Z,21.97
2022-08-16T07:35:31.741Z,22.13
2022-08-16T07:37:58.811Z,22.29
2022-08-16T07:40:58.073Z,22.49
2022-08-16T07:43:12.997Z,22.70
2022-08-16T07:45:42.835Z,22.85
2022-08-16T07:48:11.799Z,22.85
2022-08-16T07:50:56.563Z,22.85
2022-08-16T07:53:32.069Z,23.14
2022-08-16T07:56:00.503Z,23.45
2022-08-16T07:58:34.695Z,23.72
2022-08-16T08:01:10.421Z,23.96
2022-08-16T08:03:48.930Z,24.13
2022-08-16T08:06:19.679Z,24.31
2022-08-16T08:08:51.531Z,24.14
2022-08-16T08:11:23.750Z,24.41
2022-08-16T08:13:53.886Z,24.71
2022-08-16T08:16:21.958Z,24.87
2022-08-16T08:19:01.049Z,25.12
2022-08-16T08:21:59.426Z,25.38
2022-08-16T08:24:18.620Z,25.44
2022-08-16T08:26:50.051Z,25.51
2022-08-16T08:29:23.094Z,25.42
2022-08-16T08:33:00.091Z,25.08
2022-08-16T08:34:51.863Z,24.75
2022-08-16T08:37:18.950Z,24.47
2022-08-16T08:39:54.889Z,24.22
2022-08-16T08:42:26.773Z,24.31
2022-08-16T08:44:55.181Z,24.79
2022-08-16T08:47:22.818Z,25.32
2022-08-16T08:49:55.482Z,25.73
2022-08-16T08:52:34.190Z,26.01
2022-08-16T08:55:11.474Z,26.11
2022-08-16T08:57:47.147Z,26.30
2022-08-16T09:00:21.260Z,26.38
2022-08-16T09:02:52.166Z,26.75
2022-08-16T09:05:26.111Z,26.69
2022-08-16T09:08:05.981Z,26.22
2022-08-16T09:10:33.923Z,26.06
2022-08-16T09:13:08.100Z,25.48
2022-08-16T09:15:37.753Z,25.17
2022-08-16T09:18:26.518Z,25.14
2022-08-16T09:20:58.531Z,25.76
2022-08-16T09:23:27.230Z,26.30
2022-08-16T09:25:55.069Z,26.79
2022-08-16T09:29:13.576Z,27.25
2022-08-16T09:31:10.813Z,27.57
2022-08-16T09:33:39.809Z,27.91
2022-08-16T09:36:12.280Z,28.02
2022-08-16T09:39:02.107Z,27.78
2022-08-16T09:41:30.523Z,27.67
2022-08-16T09:44:20.730Z,27.31
2022-08-16T09:46:50.679Z,26.92
2022-08-16T09:49:20.320Z,26.79
2022-08-16T09:51:57.252Z,26.82
2022-08-16T09:54:32.390Z,27.22
2022-08-16T09:57:01.241Z,27.62
2022-08-16T09:59:30.794Z,27.91
2022-08-16T10:02:27.627Z,27.79
2022-08-16T10:04:58.123Z,27.56
2022-08-16T10:07:44.399Z,27.21
2022-08-16T10:10:18.924Z,26.92
2022-08-16T10:13:12.638Z,26.75
2022-08-16T10:15:54.840Z,27.56
2022-08-16T10:19:02.351Z,27.94
2022-08-16T10:21:46.482Z,27.57
2022-08-16T10:24:27.093Z,27.19
2022-08-16T10:27:19.014Z,26.86
2022-08-16T10:30:00.206Z,26.64
2022-08-16T10:32:30.502Z,26.45
2022-08-16T10:34:59.977Z,26.35
2022-08-16T10:37:32.548Z,26.36
2022-08-16T10:40:29.738Z,26.60
2022-08-16T10:42:56.612Z,27.19
2022-08-16T10:45:25.336Z,27.93
2022-08-16T10:48:02.685Z,28.09
2022-08-16T10:50:32.679Z,28.02
2022-08-16T10:53:00.490Z,27.78
2022-08-16T10:55:44.827Z,27.59
2022-08-16T10:58:16.946Z,27.41
2022-08-16T11:00:46.150Z,27.89
2022-08-16T11:06:07.484Z,29.54
2022-08-16T11:08:43.353Z,29.75
2022-08-16T11:11:19.492Z,29.42
2022-08-16T11:14:10.646Z,29.81
2022-08-16T11:19:23.114Z,30.62
2022-08-16T11:24:43.456Z,31.31
2022-08-16T11:27:20.258Z,31.82
2022-08-16T11:29:52.938Z,31.91
2022-08-16T11:32:33.744Z,32.30
2022-08-16T11:35:17.148Z,32.71
2022-08-16T11:38:47.266Z,31.43
2022-08-16T11:40:52.389Z,30.75
2022-08-16T11:43:26.553Z,31.01
2022-08-16T11:45:56.825Z,30.89
2022-08-16T11:48:27.293Z,31.05
2022-08-16T11:50:55.506Z,30.35
2022-08-16T11:53:51.811Z,29.73
2022-08-16T11:56:39.677Z,29.45
2022-08-16T11:59:08.029Z,29.39
2022-08-16T12:01:44.389Z,29.37
2022-08-16T12:04:23.423Z,29.43
2022-08-16T12:06:53.542Z,30.63
2022-08-16T12:09:22.285Z,31.67
2022-08-16T12:11:52.529Z,32.65
2022-08-16T12:14:24.148Z,32.82
2022-08-16T12:16:56.848Z,31.35
2022-08-16T12:19:33.769Z,32.75
2022-08-16T12:22:05.714Z,33.06
2022-08-16T12:24:51.085Z,33.53
2022-08-16T12:27:24.567Z,34.60
2022-08-16T12:29:57.400Z,34.87
2022-08-16T12:32:37.811Z,35.01
2022-08-16T12:35:17.237Z,35.54
2022-08-16T12:37:47.294Z,36.00
2022-08-16T12:40:23.728Z,36.27
2022-08-16T12:45:43.528Z,36.40
2022-08-16T12:48:36.830Z,36.67
2022-08-16T12:51:19.466Z,37.02
2022-08-16T12:53:48.477Z,37.21
2022-08-16T12:56:18.863Z,37.41
2022-08-16T12:58:55.853Z,35.96
2022-08-16T13:01:31.167Z,36.36
2022-08-16T13:04:21.376Z,35.37
2022-08-16T13:06:53.021Z,34.30
2022-08-16T13:09:26.382Z,33.63
2022-08-16T13:12:18.997Z,33.92
2022-08-16T13:14:47.968Z,34.05
2022-08-16T13:17:26.288Z,35.51
2022-08-16T13:20:11.359Z,36.12
2022-08-16T13:22:46.266Z,35.57
2022-08-16T13:25:20.904Z,35.61
2022-08-16T13:28:02.002Z,35.18
2022-08-16T13:30:42.112Z,36.49
2022-08-16T13:33:17.493Z,37.02
2022-08-16T13:35:57.801Z,37.47
2022-08-16T13:38:25.787Z,37.55
2022-08-16T13:40:57.466Z,37.69
2022-08-16T13:43:27.940Z,37.93
2022-08-16T13:45:58.277Z,37.09
2022-08-16T13:48:43.044Z,35.99
2022-08-16T13:51:19.257Z,36.75
2022-08-16T13:53:59.792Z,37.48
2022-08-16T13:56:37.051Z,37.74
2022-08-16T13:59:24.091Z,37.42
2022-08-16T14:02:02.482Z,37.33
2022-08-16T14:04:37.879Z,36.94
2022-08-16T14:07:09.511Z,36.71
2022-08-16T14:09:38.121Z,36.02
2022-08-16T14:12:17.999Z,35.37
2022-08-16T14:14:46.738Z,34.10
2022-08-16T14:17:14.361Z,34.48
2022-08-16T14:19:46.274Z,35.65
2022-08-16T14:22:39.920Z,36.54
2022-08-16T14:25:16.223Z,36.74
2022-08-16T14:27:43.829Z,36.79
2022-08-16T14:30:16.257Z,36.62
2022-08-16T14:32:46.863Z,36.88
2022-08-16T14:35:29.217Z,36.24
2022-08-16T14:38:05.294Z,35.88
2022-08-16T14:40:33.283Z,35.66
2022-08-16T14:43:07.035Z,34.50
2022-08-16T14:45:57.721Z,34.65
2022-08-16T14:48:26.284Z,35.16
2022-08-16T14:50:55.357Z,35.70
2022-08-16T14:53:23.879Z,35.90
2022-08-16T14:55:50.741Z,35.50
2022-08-16T14:58:20.292Z,34.61
2022-08-16T15:01:02.068Z,34.21
2022-08-16T15:03:33.198Z,34.07
2022-08-16T15:06:05.026Z,33.79
2022-08-16T15:08:36.402Z,33.73
2022-08-16T15:11:05.706Z,33.08
2022-08-16T15:13:32.710Z,33.15
2022-08-16T15:16:02.822Z,33.04
2022-08-16T15:18:31.850Z,33.36
2022-08-16T15:21:02.401Z,33.32
2022-08-16T15:23:34.053Z,33.00
2022-08-16T15:26:03.942Z,32.12
2022-08-16T15:28:37.029Z,31.49
2022-08-16T15:31:08.273Z,31.18
2022-08-16T15:33:44.349Z,30.95
2022-08-16T15:36:18.256Z,30.73
2022-08-16T15:39:02.499Z,30.46
2022-08-16T15:42:03.261Z,30.17
2022-08-16T15:44:38.936Z,30.15
2022-08-16T15:47:17.962Z,30.11
2022-08-16T15:49:46.893Z,29.92
2022-08-16T15:52:33.138Z,29.76
2022-08-16T15:55:13.171Z,29.63
2022-08-16T15:57:51.651Z,29.50
2022-08-16T16:00:20.723Z,29.40
2022-08-16T16:02:49.512Z,29.25
2022-08-16T16:05:18.860Z,29.19
2022-08-16T16:07:56.442Z,29.09
2022-08-16T16:10:34.176Z,29.03
2022-08-16T16:13:04.755Z,28.95
2022-08-16T16:15:39.402Z,28.85
2022-08-16T16:18:09.543Z,28.84
2022-08-16T16:20:43.465Z,28.82
2022-08-16T16:23:11.345Z,28.85
2022-08-16T16:25:44.135Z,28.89
2022-08-16T16:29:06.194Z,28.95
2022-08-16T16:31:09.649Z,29.09
2022-08-16T16:33:43.358Z,29.10
2022-08-16T16:36:14.781Z,29.11
2022-08-16T16:38:48.485Z,29.05
2022-08-16T16:41:22.585Z,29.01
2022-08-16T16:43:53.731Z,29.02
2022-08-16T16:46:38.931Z,29.02
2022-08-16T16:49:12.179Z,28.99
2022-08-16T16:51:44.367Z,28.99
2022-08-16T16:54:13.376Z,29.00
2022-08-16T16:56:54.532Z,29.03
2022-08-16T16:59:24.952Z,28.94
2022-08-16T17:02:28.232Z,28.89
2022-08-16T17:04:43.480Z,28.86
2022-08-16T17:07:12.296Z,28.88
2022-08-16T17:09:40.986Z,28.80
2022-08-16T17:12:14.538Z,28.76
2022-08-16T17:14:55.188Z,28.73
2022-08-16T17:17:22.864Z,28.71
2022-08-16T17:19:50.135Z,28.68
2022-08-16T17:22:22.357Z,28.64
2022-08-16T17:24:52.672Z,28.58
2022-08-16T17:27:33.775Z,28.54
2022-08-16T17:30:16.962Z,28.51
2022-08-16T17:32:54.438Z,28.44
2022-08-16T17:35:39.033Z,28.40
2022-08-16T17:38:09.631Z,28.34
2022-08-16T17:40:55.562Z,28.28
2022-08-16T17:43:34.870Z,28.24
2022-08-16T17:46:06.422Z,28.19
2022-08-16T17:48:53.534Z,28.14
2022-08-16T17:51:24.444Z,28.11
2022-08-16T17:53:51.393Z,28.08
2022-08-16T17:56:19.366Z,27.99
2022-08-16T17:58:46.843Z,27.95
2022-08-16T18:01:14.022Z,27.87
2022-08-16T18:04:06.764Z,27.79
2022-08-16T18:06:29.263Z,27.71
2022-08-16T18:09:02.653Z,27.58
2022-08-16T18:11:33.958Z,27.46
2022-08-16T18:14:01.410Z,27.38
2022-08-16T18:16:28.602Z,27.23
2022-08-16T18:18:55.614Z,27.08
2022-08-16T18:21:41.884Z,26.93
2022-08-16T18:24:11.953Z,26.63
2022-08-16T18:26:39.679Z,26.43
2022-08-16T18:29:07.175Z,26.23
2022-08-16T18:31:34.991Z,26.09
2022-08-16T18:34:02.756Z,26.06
2022-08-16T18:36:30.268Z,26.10
2022-08-16T18:38:57.739Z,26.12
2022-08-16T18:41:26.669Z,25.91
2022-08-16T18:44:23.967Z,25.61
2022-08-16T18:46:44.062Z,25.45
2022-08-16T18:49:14.931Z,25.44
2022-08-16T18:51:45.822Z,25.30
2022-08-16T18:54:17.985Z,25.32
2022-08-16T18:56:55.538Z,25.24
2022-08-16T18:59:26.504Z,25.18
2022-08-16T19:01:53.763Z,25.15
2022-08-16T19:04:49.014Z,25.02
2022-08-16T19:07:14.327Z,24.79
2022-08-16T19:09:41.288Z,24.81
2022-08-16T19:12:08.632Z,24.60
2022-08-16T19:14:35.528Z,24.54
2022-08-16T19:17:02.406Z,24.53
2022-08-16T19:19:29.379Z,24.43
2022-08-16T19:21:57.274Z,24.32
2022-08-16T19:24:24.110Z,24.13
2022-08-16T19:26:57.065Z,24.08
2022-08-16T19:29:24.569Z,24.15
2022-08-16T19:31:51.579Z,24.06
2022-08-16T19:34:18.770Z,24.11
2022-08-16T19:36:45.681Z,24.19
2022-08-16T19:39:15.987Z,24.18
2022-08-16T19:41:52.978Z,24.11
2022-08-16T19:44:24.358Z,24.03
2022-08-16T19:46:51.678Z,24.00
2022-08-16T19:49:18.618Z,23.96
2022-08-16T19:51:48.514Z,23.87
2022-08-16T19:54:16.286Z,23.88
2022-08-16T19:56:43.525Z,23.90
2022-08-16T19:59:19.889Z,23.84
2022-08-16T20:01:51.615Z,23.60
2022-08-16T20:04:21.418Z,23.55
2022-08-16T20:06:48.441Z,23.47
2022-08-16T20:09:16.093Z,23.45
2022-08-16T20:11:47.398Z,23.34
2022-08-16T20:14:24.466Z,23.30
2022-08-16T20:16:59.211Z,23.04
2022-08-16T20:19:36.253Z,23.03
2022-08-16T20:22:35.872Z,23.07
2022-08-16T20:25:11.379Z,23.12
2022-08-16T20:27:39.481Z,23.03
2022-08-16T20:30:10.625Z,22.91
2022-08-16T20:32:38.537Z,22.82
2022-08-16T20:35:08.792Z,22.87
2022-08-16T20:37:37.277Z,22.81
2022-08-16T20:40:28.322Z,22.86
2022-08-16T20:43:12.273Z,22.84
2022-08-16T20:45:42.913Z,22.76
2022-08-16T20:48:10.677Z,22.79
2022-08-16T20:50:37.857Z,22.82
2022-08-16T20:53:06.247Z,22.72
2022-08-16T20:55:36.470Z,22.56
2022-08-16T20:58:03.730Z,22.54
2022-08-16T21:00:32.260Z,22.55
2022-08-16T21:03:00.939Z,22.59
2022-08-16T21:05:31.836Z,22.55
2022-08-16T21:07:58.924Z,22.37
2022-08-16T21:10:27.066Z,22.28
2022-08-16T21:13:02.818Z,22.20
2022-08-16T21:15:33.178Z,22.12
2022-08-16T21:18:00.607Z,22.06
2022-08-16T21:20:29.207Z,21.99
2022-08-16T21:23:03.722Z,21.90
2022-08-16T21:25:36.422Z,21.87
2022-08-16T21:28:41.809Z,21.87
2022-08-16T21:30:53.317Z,21.70
2022-08-16T21:33:20.952Z,21.66
2022-08-16T21:35:51.205Z,21.62
2022-08-16T21:38:30.247Z,21.49
2022-08-16T21:41:00.172Z,21.47
2022-08-16T21:43:31.752Z,21.59
2022-08-16T21:46:02.257Z,21.68
2022-08-16T21:48:34.418Z,21.68
2022-08-16T21:51:12.710Z,21.68
2022-08-16T21:53:40.161Z,21.77
2022-08-16T21:56:16.608Z,21.73
2022-08-16T21:58:53.320Z,21.71
2022-08-16T22:01:24.500Z,21.76
2022-08-16T22:04:36.118Z,21.75
2022-08-16T22:06:42.103Z,21.69
2022-08-16T22:09:12.856Z,21.45
2022-08-16T22:11:39.875Z,21.39
2022-08-16T22:14:07.830Z,21.36
2022-08-16T22:16:38.311Z,21.37
2022-08-16T22:19:06.164Z,21.35
2022-08-16T22:21:34.757Z,21.32
2022-08-16T22:24:02.354Z,21.19
2022-08-16T22:26:33.009Z,21.05
2022-08-16T22:29:06.541Z,20.99
2022-08-16T22:31:36.043Z,21.00
2022-08-16T22:34:04.520Z,20.98
2022-08-16T22:36:33.528Z,20.88
2022-08-16T22:39:05.759Z,20.87
2022-08-16T22:41:35.721Z,20.94
2022-08-16T22:44:05.024Z,20.93
2022-08-16T22:46:34.733Z,21.03
2022-08-16T22:49:01.807Z,21.02
2022-08-16T22:51:28.785Z,21.08
2022-08-16T22:53:56.877Z,21.07
2022-08-16T22:56:25.222Z,20.92
2022-08-16T22:58:52.626Z,20.96
2022-08-16T23:01:23.217Z,21.00
2022-08-16T23:03:50.615Z,20.94
2022-08-16T23:06:18.541Z,20.94
2022-08-16T23:08:45.317Z,20.89
2022-08-16T23:11:22.329Z,20.83
2022-08-16T23:13:54.189Z,20.70
2022-08-16T23:16:33.173Z,20.66
2022-08-16T23:19:04.477Z,20.61
2022-08-16T23:21:33.128Z,20.57
2022-08-16T23:24:00.166Z,20.62
2022-08-16T23:26:46.782Z,20.69
2022-08-16T23:29:26.492Z,20.68
2022-08-16T23:31:57.946Z,20.62
2022-08-16T23:34:27.175Z,20.48
2022-08-16T23:36:54.711Z,20.38
2022-08-16T23:39:22.462Z,20.37
2022-08-16T23:41:49.588Z,20.31
2022-08-16T23:44:57.768Z,20.28
2022-08-16T23:47:05.864Z,20.22
2022-08-16T23:49:56.030Z,20.11
2022-08-16T23:52:45.285Z,20.13
2022-08-16T23:55:07.139Z,20.19
2022-08-16T23:57:34.084Z,20.26
